createdAt,value
2022-11-05T00:00:20.144Z,87.63
2022-11-05T00:01:20.244Z,87.73
2022-11-05T00:02:20.177Z,87.63
2022-11-05T00:03:20.161Z,87.63
2022-11-05T00:04:20.128Z,87.63
2022-11-05T00:05:20.114Z,87.52
2022-11-05T00:06:20.101Z,87.73
2022-11-05T00:07:20.087Z,87.73
2022-11-05T00:08:20.096Z,87.63
2022-11-05T00:09:20.076Z,87.52
2022-11-05T00:10:20.080Z,87.32
2022-11-05T00:11:20.053Z,87.22
2022-11-05T00:12:20.015Z,86.70
2022-11-05T00:13:20.027Z,86.29
2022-11-05T00:14:20.011Z,86.19
2022-11-05T00:15:20.001Z,86.19
2022-11-05T00:16:20.009Z,86.29
2022-11-05T00:17:19.968Z,86.50
2022-11-05T00:18:19.980Z,86.80
2022-11-05T00:19:19.937Z,86.70
2022-11-05T00:20:19.929Z,86.70
2022-11-05T00:21:19.920Z,86.80
2022-11-05T00:22:19.952Z,86.80
2022-11-05T00:23:19.894Z,86.80
2022-11-05T00:24:24.167Z,86.91
2022-11-05T00:25:19.882Z,86.80
2022-11-05T00:26:19.861Z,86.80
2022-11-05T00:27:19.870Z,86.56
2022-11-05T00:28:19.859Z,86.56
2022-11-05T00:29:19.820Z,86.35
2022-11-05T00:30:19.832Z,86.56
2022-11-05T00:31:19.824Z,86.70
2022-11-05T00:32:19.802Z,86.66
2022-11-05T00:33:19.769Z,86.70
2022-11-05T00:34:19.804Z,86.70
2022-11-05T00:35:19.773Z,86.60
2022-11-05T00:36:19.741Z,86.66
2022-11-05T00:37:19.752Z,86.66
2022-11-05T00:38:19.727Z,86.46
2022-11-05T00:39:19.737Z,86.46
2022-11-05T00:40:19.727Z,86.35
2022-11-05T00:41:19.716Z,86.46
2022-11-05T00:42:19.697Z,86.60
2022-11-05T00:43:19.666Z,86.80
2022-11-05T00:44:19.654Z,86.80
2022-11-05T00:45:19.648Z,86.60
2022-11-05T00:46:19.662Z,86.80
2022-11-05T00:47:19.613Z,86.80
2022-11-05T00:48:19.605Z,87.01
2022-11-05T00:49:19.604Z,87.01
2022-11-05T00:50:19.588Z,86.70
2022-11-05T00:51:19.569Z,86.91
2022-11-05T00:52:19.588Z,87.01
2022-11-05T00:53:19.582Z,86.80
2022-11-05T00:54:19.539Z,86.91
2022-11-05T00:55:19.529Z,87.12
2022-11-05T00:56:19.527Z,87.12
2022-11-05T00:57:19.511Z,87.12
2022-11-05T00:58:19.527Z,87.32
2022-11-05T00:59:19.520Z,87.32
2022-11-05T01:00:19.456Z,87.42
2022-11-05T01:01:19.576Z,87.32
2022-11-05T01:02:19.542Z,87.42
2022-11-05T01:03:19.449Z,87.32
2022-11-05T01:04:19.428Z,87.42
2022-11-05T01:05:19.423Z,87.22
2022-11-05T01:06:19.422Z,87.01
2022-11-05T01:07:19.402Z,86.91
2022-11-05T01:08:19.411Z,87.01
2022-11-05T01:09:19.392Z,87.05
2022-11-05T01:10:19.378Z,86.95
2022-11-05T01:11:19.353Z,87.46
2022-11-05T01:12:19.330Z,87.46
2022-11-05T01:13:19.982Z,87.57
2022-11-05T01:14:19.331Z,87.77
2022-11-05T01:15:19.326Z,88.08
2022-11-05T01:16:19.272Z,88.08
2022-11-05T01:17:19.325Z,87.98
2022-11-05T01:18:19.272Z,88.33
2022-11-05T01:19:19.279Z,88.53
2022-11-05T01:20:19.246Z,88.53
2022-11-05T01:21:19.234Z,88.49
2022-11-05T01:22:19.235Z,88.49
2022-11-05T01:23:19.660Z,88.39
2022-11-05T01:24:19.227Z,88.49
2022-11-05T01:25:19.196Z,88.39
2022-11-05T01:26:19.186Z,88.08
2022-11-05T01:27:19.203Z,87.73
2022-11-05T01:28:19.207Z,87.32
2022-11-05T01:29:19.166Z,87.42
2022-11-05T01:30:19.124Z,87.46
2022-11-05T01:31:19.143Z,87.42
2022-11-05T01:32:19.153Z,87.32
2022-11-05T01:33:19.116Z,87.22
2022-11-05T01:34:19.092Z,87.22
2022-11-05T01:35:19.076Z,87.32
2022-11-05T01:36:19.066Z,87.52
2022-11-05T01:37:19.055Z,87.36
2022-11-05T01:38:19.059Z,87.57
2022-11-05T01:39:19.080Z,87.36
2022-11-05T01:40:19.049Z,87.67
2022-11-05T01:41:19.015Z,87.87
2022-11-05T01:42:19.003Z,87.87
2022-11-05T01:43:19.028Z,88.39
2022-11-05T01:44:18.957Z,88.29
2022-11-05T01:45:18.979Z,88.18
2022-11-05T01:46:18.951Z,87.51
2022-11-05T01:47:18.928Z,87.19
2022-11-05T01:48:18.985Z,86.99
2022-11-05T01:49:18.947Z,87.19
2022-11-05T01:50:18.892Z,87.51
2022-11-05T01:51:18.908Z,87.71
2022-11-05T01:52:18.864Z,88.23
2022-11-05T01:53:18.897Z,88.37
2022-11-05T01:54:18.880Z,88.68
2022-11-05T01:55:18.895Z,88.89
2022-11-05T01:56:18.869Z,88.78
2022-11-05T01:57:18.824Z,88.99
2022-11-05T01:58:18.845Z,88.89
2022-11-05T01:59:18.835Z,88.89
2022-11-05T02:00:18.791Z,89.19
2022-11-05T02:01:18.916Z,90.12
2022-11-05T02:02:18.898Z,90.01
2022-11-05T02:03:18.764Z,89.09
2022-11-05T02:04:18.785Z,88.47
2022-11-05T02:05:18.732Z,88.17
2022-11-05T02:06:18.715Z,88.57
2022-11-05T02:07:18.696Z,88.47
2022-11-05T02:08:18.718Z,88.78
2022-11-05T02:09:18.740Z,88.89
2022-11-05T02:10:18.675Z,88.57
2022-11-05T02:11:18.674Z,88.37
2022-11-05T02:12:18.643Z,88.51
2022-11-05T02:13:18.641Z,88.62
2022-11-05T02:14:18.649Z,88.62
2022-11-05T02:15:18.603Z,88.72
2022-11-05T02:16:18.637Z,88.72
2022-11-05T02:17:18.574Z,88.82
2022-11-05T02:18:18.600Z,89.03
2022-11-05T02:19:18.590Z,88.82
2022-11-05T02:20:18.576Z,88.96
2022-11-05T02:21:18.571Z,89.28
2022-11-05T02:22:18.551Z,89.58
2022-11-05T02:23:18.508Z,90.00
2022-11-05T02:24:18.556Z,90.41
2022-11-05T02:25:18.501Z,90.72
2022-11-05T02:26:18.520Z,91.34
2022-11-05T02:27:18.478Z,91.19
2022-11-05T02:28:18.498Z,91.40
2022-11-05T02:29:18.482Z,91.56
2022-11-05T02:30:18.451Z,91.36
2022-11-05T02:31:18.431Z,90.59
2022-11-05T02:32:18.418Z,89.97
2022-11-05T02:33:18.414Z,89.52
2022-11-05T02:34:18.431Z,89.11
2022-11-05T02:35:18.392Z,89.11
2022-11-05T02:36:18.406Z,88.80
2022-11-05T02:37:18.363Z,88.70
2022-11-05T02:38:18.373Z,88.59
2022-11-05T02:39:18.330Z,88.18
2022-11-05T02:40:18.345Z,87.77
2022-11-05T02:41:18.313Z,87.26
2022-11-05T02:42:18.303Z,86.95
2022-11-05T02:43:18.316Z,86.64
2022-11-05T02:44:18.291Z,86.64
2022-11-05T02:45:18.271Z,86.79
2022-11-05T02:46:18.241Z,86.68
2022-11-05T02:47:18.513Z,87.40
2022-11-05T02:48:18.245Z,88.33
2022-11-05T02:49:18.231Z,88.43
2022-11-05T02:50:18.226Z,88.53
2022-11-05T02:51:18.215Z,88.95
2022-11-05T02:52:18.173Z,89.15
2022-11-05T02:53:18.175Z,89.15
2022-11-05T02:54:18.183Z,89.05
2022-11-05T02:55:18.177Z,88.74
2022-11-05T02:56:18.134Z,88.64
2022-11-05T02:57:18.127Z,89.05
2022-11-05T02:58:18.105Z,89.05
2022-11-05T02:59:18.115Z,88.95
2022-11-05T03:00:18.130Z,89.05
2022-11-05T03:01:18.167Z,89.25
2022-11-05T03:02:18.111Z,89.09
2022-11-05T03:03:18.061Z,88.57
2022-11-05T03:04:18.078Z,88.47
2022-11-05T03:05:18.026Z,87.96
2022-11-05T03:06:18.061Z,86.72
2022-11-05T03:07:17.998Z,86.21
2022-11-05T03:08:18.010Z,86.21
2022-11-05T03:09:18.021Z,86.45
2022-11-05T03:10:17.982Z,86.66
2022-11-05T03:11:17.998Z,86.76
2022-11-05T03:12:17.939Z,87.17
2022-11-05T03:13:17.940Z,87.63
2022-11-05T03:14:17.969Z,88.04
2022-11-05T03:15:17.948Z,88.14
2022-11-05T03:16:17.918Z,88.76
2022-11-05T03:17:17.885Z,88.96
2022-11-05T03:18:17.883Z,88.86
2022-11-05T03:19:17.870Z,88.56
2022-11-05T03:20:17.849Z,88.56
2022-11-05T03:21:17.867Z,88.45
2022-11-05T03:22:17.859Z,88.45
2022-11-05T03:23:17.840Z,88.45
2022-11-05T03:24:17.822Z,88.14
2022-11-05T03:25:17.805Z,88.24
2022-11-05T03:26:17.824Z,88.45
2022-11-05T03:27:17.812Z,88.65
2022-11-05T03:28:17.771Z,88.96
2022-11-05T03:29:17.764Z,89.28
2022-11-05T03:30:17.756Z,89.48
2022-11-05T03:31:17.755Z,89.69
2022-11-05T03:32:17.716Z,89.38
2022-11-05T03:33:17.741Z,89.48
2022-11-05T03:34:17.691Z,89.28
2022-11-05T03:35:17.685Z,88.65
2022-11-05T03:36:17.687Z,88.56
2022-11-05T03:37:17.666Z,88.62
2022-11-05T03:38:17.663Z,88.72
2022-11-05T03:39:17.676Z,88.82
2022-11-05T03:40:17.700Z,88.72
2022-11-05T03:41:17.632Z,88.51
2022-11-05T03:42:17.624Z,88.51
2022-11-05T03:43:17.608Z,88.51
2022-11-05T03:44:17.631Z,88.62
2022-11-05T03:45:17.578Z,88.72
2022-11-05T03:46:17.580Z,88.76
2022-11-05T03:47:17.558Z,88.86
2022-11-05T03:48:17.583Z,89.07
2022-11-05T03:49:17.518Z,89.07
2022-11-05T03:50:17.548Z,89.07
2022-11-05T03:51:17.516Z,89.38
2022-11-05T03:52:17.507Z,89.48
2022-11-05T03:53:17.501Z,89.28
2022-11-05T03:54:17.478Z,89.17
2022-11-05T03:55:17.461Z,89.17
2022-11-05T03:56:17.440Z,89.17
2022-11-05T03:57:17.481Z,88.86
2022-11-05T03:58:17.441Z,89.07
2022-11-05T03:59:17.427Z,88.96
2022-11-05T04:00:17.440Z,88.96
2022-11-05T04:01:17.562Z,89.07
2022-11-05T04:02:17.520Z,89.07
2022-11-05T04:03:17.375Z,89.07
2022-11-05T04:04:17.373Z,89.17
2022-11-05T04:05:17.342Z,89.17
2022-11-05T04:06:17.353Z,89.28
2022-11-05T04:07:17.309Z,89.38
2022-11-05T04:08:17.289Z,89.38
2022-11-05T04:09:17.322Z,89.48
2022-11-05T04:10:17.286Z,89.38
2022-11-05T04:11:17.293Z,89.28
2022-11-05T04:12:17.269Z,89.38
2022-11-05T04:13:17.261Z,89.38
2022-11-05T04:14:17.231Z,89.38
2022-11-05T04:15:17.214Z,89.69
2022-11-05T04:16:17.223Z,89.48
2022-11-05T04:17:17.205Z,89.38
2022-11-05T04:18:17.224Z,89.28
2022-11-05T04:19:17.215Z,89.28
2022-11-05T04:20:17.163Z,89.17
2022-11-05T04:21:17.180Z,89.28
2022-11-05T04:22:17.177Z,89.28
2022-11-05T04:23:17.113Z,89.07
2022-11-05T04:24:17.129Z,89.07
2022-11-05T04:25:17.129Z,89.07
2022-11-05T04:26:17.094Z,89.17
2022-11-05T04:27:17.127Z,89.17
2022-11-05T04:28:17.097Z,89.28
2022-11-05T04:29:17.055Z,89.38
2022-11-05T04:30:17.064Z,89.48
2022-11-05T04:31:17.040Z,89.58
2022-11-05T04:32:17.046Z,89.73
2022-11-05T04:33:17.038Z,89.73
2022-11-05T04:34:16.985Z,89.73
2022-11-05T04:35:17.039Z,89.62
2022-11-05T04:36:16.967Z,89.62
2022-11-05T04:37:16.990Z,89.52
2022-11-05T04:38:16.981Z,89.42
2022-11-05T04:39:16.953Z,89.42
2022-11-05T04:40:16.948Z,89.32
2022-11-05T04:41:16.918Z,89.52
2022-11-05T04:42:16.920Z,89.73
2022-11-05T04:43:17.392Z,89.73
2022-11-05T04:44:16.905Z,89.94
2022-11-05T04:45:16.858Z,89.94
2022-11-05T04:46:16.878Z,89.83
2022-11-05T04:47:16.859Z,89.83
2022-11-05T04:48:16.861Z,89.73
2022-11-05T04:49:16.818Z,89.62
2022-11-05T04:50:16.869Z,89.62
2022-11-05T04:51:16.811Z,89.52
2022-11-05T04:52:16.819Z,89.52
2022-11-05T04:53:16.770Z,89.52
2022-11-05T04:54:16.804Z,89.52
2022-11-05T04:55:16.753Z,89.52
2022-11-05T04:56:16.771Z,89.52
2022-11-05T04:57:16.744Z,89.42
2022-11-05T04:58:16.776Z,89.52
2022-11-05T04:59:16.701Z,89.62
2022-11-05T05:00:16.715Z,89.52
2022-11-05T05:01:16.764Z,89.52
2022-11-05T05:02:16.808Z,89.52
2022-11-05T05:03:16.675Z,89.62
2022-11-05T05:04:16.697Z,89.52
2022-11-05T05:05:16.646Z,89.62
2022-11-05T05:06:16.637Z,89.62
2022-11-05T05:07:16.645Z,89.62
2022-11-05T05:08:16.595Z,89.52
2022-11-05T05:09:16.654Z,89.52
2022-11-05T05:10:16.586Z,89.62
2022-11-05T05:11:16.574Z,89.52
2022-11-05T05:12:16.638Z,89.58
2022-11-05T05:13:16.568Z,89.58
2022-11-05T05:14:16.535Z,89.38
2022-11-05T05:15:16.584Z,89.17
2022-11-05T05:16:16.518Z,89.28
2022-11-05T05:17:16.494Z,89.17
2022-11-05T05:18:16.495Z,89.17
2022-11-05T05:19:16.495Z,89.17
2022-11-05T05:20:16.520Z,89.28
2022-11-05T05:21:16.468Z,89.58
2022-11-05T05:22:16.450Z,89.48
2022-11-05T05:23:16.440Z,89.38
2022-11-05T05:24:16.425Z,89.58
2022-11-05T05:25:16.450Z,89.69
2022-11-05T05:26:16.418Z,89.94
2022-11-05T05:27:16.410Z,89.73
2022-11-05T05:28:16.381Z,89.73
2022-11-05T05:29:16.350Z,89.73
2022-11-05T05:30:16.370Z,89.73
2022-11-05T05:31:16.359Z,89.73
2022-11-05T05:32:16.327Z,89.94
2022-11-05T05:33:16.338Z,90.04
2022-11-05T05:34:16.300Z,89.94
2022-11-05T05:35:16.333Z,90.04
2022-11-05T05:36:16.309Z,89.83
2022-11-05T05:37:16.279Z,90.04
2022-11-05T05:38:16.250Z,90.45
2022-11-05T05:39:16.232Z,90.55
2022-11-05T05:40:16.241Z,90.55
2022-11-05T05:41:16.250Z,90.55
2022-11-05T05:42:16.204Z,90.55
2022-11-05T05:43:16.202Z,90.45
2022-11-05T05:44:16.195Z,90.35
2022-11-05T05:45:16.213Z,90.35
2022-11-05T05:46:16.152Z,90.55
2022-11-05T05:47:16.150Z,90.86
2022-11-05T05:48:16.146Z,90.86
2022-11-05T05:49:16.133Z,90.86
2022-11-05T05:50:16.167Z,90.76
2022-11-05T05:51:16.135Z,90.55
2022-11-05T05:52:16.168Z,90.35
2022-11-05T05:53:16.070Z,90.14
2022-11-05T05:54:16.093Z,89.94
2022-11-05T05:55:16.053Z,89.94
2022-11-05T05:56:16.033Z,90.25
2022-11-05T05:57:16.097Z,90.14
2022-11-05T05:58:16.045Z,90.25
2022-11-05T05:59:16.042Z,90.35
2022-11-05T06:00:16.018Z,90.45
2022-11-05T06:01:19.348Z,90.25
2022-11-05T06:02:16.131Z,90.25
2022-11-05T06:03:16.005Z,90.25
2022-11-05T06:04:15.948Z,90.14
2022-11-05T06:05:15.974Z,90.04
2022-11-05T06:06:15.940Z,90.14
2022-11-05T06:07:15.927Z,90.25
2022-11-05T06:08:15.910Z,90.14
2022-11-05T06:09:15.955Z,90.14
2022-11-05T06:10:15.963Z,90.25
2022-11-05T06:11:15.870Z,90.19
2022-11-05T06:12:15.862Z,90.19
2022-11-05T06:13:15.849Z,90.49
2022-11-05T06:14:15.846Z,90.59
2022-11-05T06:15:15.848Z,90.70
2022-11-05T06:16:15.802Z,90.59
2022-11-05T06:17:15.803Z,90.91
2022-11-05T06:18:15.833Z,91.01
2022-11-05T06:19:15.782Z,91.01
2022-11-05T06:20:15.779Z,91.01
2022-11-05T06:21:15.763Z,91.01
2022-11-05T06:22:15.752Z,90.80
2022-11-05T06:23:15.720Z,90.70
2022-11-05T06:24:15.747Z,90.49
2022-11-05T06:25:15.713Z,90.39
2022-11-05T06:26:15.743Z,90.08
2022-11-05T06:27:15.692Z,89.87
2022-11-05T06:28:15.682Z,89.83
2022-11-05T06:29:15.664Z,89.52
2022-11-05T06:30:15.658Z,89.77
2022-11-05T06:31:15.651Z,89.83
2022-11-05T06:32:15.637Z,89.83
2022-11-05T06:33:15.602Z,89.94
2022-11-05T06:34:15.624Z,89.94
2022-11-05T06:35:15.606Z,89.73
2022-11-05T06:36:15.583Z,89.62
2022-11-05T06:37:15.585Z,89.52
2022-11-05T06:38:15.593Z,89.52
2022-11-05T06:39:15.574Z,89.42
2022-11-05T06:40:15.566Z,89.52
2022-11-05T06:41:15.513Z,89.42
2022-11-05T06:42:19.403Z,89.42
2022-11-05T06:43:15.506Z,89.52
2022-11-05T06:44:15.508Z,89.62
2022-11-05T06:45:15.483Z,89.62
2022-11-05T06:46:15.479Z,89.42
2022-11-05T06:47:15.471Z,89.32
2022-11-05T06:48:15.463Z,89.32
2022-11-05T06:49:15.452Z,89.32
2022-11-05T06:50:15.473Z,89.32
2022-11-05T06:51:15.407Z,89.11
2022-11-05T06:52:15.397Z,89.11
2022-11-05T06:53:15.364Z,89.22
2022-11-05T06:54:15.376Z,89.11
2022-11-05T06:55:15.357Z,88.90
2022-11-05T06:56:15.341Z,88.76
2022-11-05T06:57:15.319Z,88.56
2022-11-05T06:58:15.359Z,88.24
2022-11-05T06:59:15.312Z,88.14
2022-11-05T07:00:15.297Z,88.04
2022-11-05T07:01:15.340Z,87.93
2022-11-05T07:02:15.288Z,87.83
2022-11-05T07:03:15.505Z,87.48
2022-11-05T07:04:15.243Z,87.27
2022-11-05T07:05:15.240Z,87.17
2022-11-05T07:06:15.228Z,86.87
2022-11-05T07:07:15.216Z,87.01
2022-11-05T07:08:15.241Z,86.97
2022-11-05T07:09:15.169Z,86.76
2022-11-05T07:10:15.187Z,86.76
2022-11-05T07:11:15.171Z,86.66
2022-11-05T07:12:15.179Z,86.66
2022-11-05T07:13:15.466Z,86.55
2022-11-05T07:14:15.152Z,86.45
2022-11-05T07:15:15.135Z,86.45
2022-11-05T07:16:15.147Z,86.24
2022-11-05T07:17:15.123Z,86.15
2022-11-05T07:18:15.085Z,85.94
2022-11-05T07:19:15.105Z,85.89
2022-11-05T07:20:15.074Z,85.89
2022-11-05T07:21:15.051Z,85.79
2022-11-05T07:22:15.066Z,85.69
2022-11-05T07:23:15.209Z,85.59
2022-11-05T07:24:15.023Z,85.49
2022-11-05T07:25:14.992Z,85.28
2022-11-05T07:26:14.983Z,85.14
2022-11-05T07:27:15.047Z,85.14
2022-11-05T07:28:14.977Z,84.83
2022-11-05T07:29:14.984Z,84.62
2022-11-05T07:30:14.947Z,84.62
2022-11-05T07:31:14.937Z,84.72
2022-11-05T07:32:14.946Z,84.69
2022-11-05T07:33:15.120Z,84.38
2022-11-05T07:34:14.902Z,84.27
2022-11-05T07:35:14.887Z,84.07
2022-11-05T07:36:14.884Z,83.97
2022-11-05T07:37:14.900Z,83.83
2022-11-05T07:38:14.979Z,83.62
2022-11-05T07:39:14.849Z,83.27
2022-11-05T07:40:14.826Z,82.96
2022-11-05T07:41:14.840Z,82.86
2022-11-05T07:42:14.812Z,82.65
2022-11-05T07:43:15.179Z,82.55
2022-11-05T07:44:14.798Z,82.45
2022-11-05T07:45:14.779Z,82.10
2022-11-05T07:46:14.765Z,82.10
2022-11-05T07:47:14.739Z,82.20
2022-11-05T07:48:14.801Z,82.00
2022-11-05T07:49:14.718Z,82.00
2022-11-05T07:50:14.718Z,82.10
2022-11-05T07:51:14.713Z,81.90
2022-11-05T07:52:14.679Z,82.00
2022-11-05T07:53:14.999Z,82.20
2022-11-05T07:54:14.670Z,82.31
2022-11-05T07:55:14.678Z,82.20
2022-11-05T07:56:14.640Z,82.10
2022-11-05T07:57:14.637Z,82.31
2022-11-05T07:58:14.644Z,82.41
2022-11-05T07:59:14.641Z,82.17
2022-11-05T08:00:14.591Z,82.06
2022-11-05T08:01:14.633Z,81.76
2022-11-05T08:02:14.717Z,81.55
2022-11-05T08:03:15.023Z,81.41
2022-11-05T08:04:14.588Z,81.30
2022-11-05T08:05:14.556Z,81.51
2022-11-05T08:06:14.535Z,81.20
2022-11-05T08:07:14.536Z,81.00
2022-11-05T08:08:14.556Z,81.00
2022-11-05T08:09:14.517Z,80.86
2022-11-05T08:10:14.481Z,80.76
2022-11-05T08:11:14.477Z,80.65
2022-11-05T08:12:14.486Z,80.76
2022-11-05T08:13:14.777Z,80.86
2022-11-05T08:14:14.443Z,80.76
2022-11-05T08:15:14.424Z,80.86
2022-11-05T08:16:14.435Z,80.51
2022-11-05T08:17:18.355Z,80.41
2022-11-05T08:18:14.386Z,80.41
2022-11-05T08:19:14.420Z,80.45
2022-11-05T08:20:14.366Z,80.55
2022-11-05T08:21:14.390Z,80.76
2022-11-05T08:22:14.346Z,80.86
2022-11-05T08:23:14.814Z,81.30
2022-11-05T08:24:14.356Z,81.71
2022-11-05T08:25:14.308Z,82.03
2022-11-05T08:26:14.326Z,82.03
2022-11-05T08:27:14.299Z,81.92
2022-11-05T08:28:14.290Z,81.78
2022-11-05T08:29:14.293Z,81.57
2022-11-05T08:30:14.292Z,81.37
2022-11-05T08:31:14.262Z,81.48
2022-11-05T08:32:14.267Z,81.37
2022-11-05T08:33:14.793Z,81.27
2022-11-05T08:34:14.228Z,81.27
2022-11-05T08:35:14.210Z,81.23
2022-11-05T08:36:14.199Z,81.02
2022-11-05T08:37:14.195Z,81.13
2022-11-05T08:38:14.173Z,81.27
2022-11-05T08:39:16.969Z,81.68
2022-11-05T08:40:14.197Z,81.88
2022-11-05T08:41:14.146Z,81.99
2022-11-05T08:42:14.134Z,81.78
2022-11-05T08:43:14.577Z,81.54
2022-11-05T08:44:14.114Z,81.34
2022-11-05T08:45:14.129Z,81.13
2022-11-05T08:46:14.094Z,81.02
2022-11-05T08:47:14.062Z,80.68
2022-11-05T08:48:14.068Z,80.47
2022-11-05T08:49:14.061Z,80.03
2022-11-05T08:50:14.045Z,79.52
2022-11-05T08:51:14.066Z,79.52
2022-11-05T08:52:14.021Z,79.31
2022-11-05T08:53:14.318Z,79.31
2022-11-05T08:54:14.028Z,79.31
2022-11-05T08:55:13.990Z,79.21
2022-11-05T08:56:14.005Z,79.17
2022-11-05T08:57:13.984Z,78.86
2022-11-05T08:58:13.948Z,78.66
2022-11-05T08:59:13.972Z,78.45
2022-11-05T09:00:13.929Z,78.66
2022-11-05T09:01:14.007Z,78.56
2022-11-05T09:02:13.981Z,78.66
2022-11-05T09:03:14.504Z,78.42
2022-11-05T09:04:13.890Z,78.08
2022-11-05T09:05:13.917Z,77.56
2022-11-05T09:06:13.867Z,77.12
2022-11-05T09:07:13.842Z,76.81
2022-11-05T09:08:13.839Z,76.71
2022-11-05T09:09:13.822Z,76.81
2022-11-05T09:10:13.833Z,77.01
2022-11-05T09:11:13.803Z,77.22
2022-11-05T09:12:13.809Z,77.22
2022-11-05T09:13:18.721Z,77.12
2022-11-05T09:14:14.784Z,77.12
2022-11-05T09:15:13.752Z,77.01
2022-11-05T09:16:13.807Z,76.26
2022-11-05T09:17:13.753Z,75.41
2022-11-05T09:18:13.754Z,74.97
2022-11-05T09:19:13.712Z,74.56
2022-11-05T09:20:13.771Z,74.15
2022-11-05T09:21:13.701Z,73.81
2022-11-05T09:22:13.662Z,73.71
2022-11-05T09:23:13.932Z,73.16
2022-11-05T09:24:13.654Z,72.65
2022-11-05T09:25:13.639Z,72.96
2022-11-05T09:26:13.652Z,72.55
2022-11-05T09:27:13.612Z,72.11
2022-11-05T09:28:16.901Z,71.70
2022-11-05T09:29:14.616Z,72.14
2022-11-05T09:30:13.675Z,71.84
2022-11-05T09:31:13.573Z,71.73
2022-11-05T09:32:13.573Z,71.63
2022-11-05T09:33:13.872Z,70.89
2022-11-05T09:34:13.532Z,70.78
2022-11-05T09:35:13.548Z,71.43
2022-11-05T09:36:13.529Z,71.84
2022-11-05T09:37:13.501Z,71.84
2022-11-05T09:38:13.488Z,71.33
2022-11-05T09:39:13.473Z,70.21
2022-11-05T09:40:13.468Z,65.13
2022-11-05T09:41:13.460Z,63.74
2022-11-05T09:42:13.480Z,65.43
2022-11-05T09:43:13.786Z,66.00
2022-11-05T09:44:13.409Z,63.34
2022-11-05T09:45:13.419Z,60.69
2022-11-05T09:46:13.411Z,58.64
2022-11-05T09:47:13.419Z,57.44
2022-11-05T09:48:13.401Z,56.43
2022-11-05T09:49:13.389Z,55.19
2022-11-05T09:50:13.413Z,55.19
2022-11-05T09:51:13.362Z,53.85
2022-11-05T09:52:13.334Z,53.20
2022-11-05T09:53:13.572Z,52.44
2022-11-05T09:54:13.345Z,51.33
2022-11-05T09:55:13.311Z,51.20
2022-11-05T09:56:13.294Z,50.40
2022-11-05T09:57:13.281Z,50.52
2022-11-05T09:58:13.334Z,50.22
2022-11-05T09:59:13.252Z,50.62
2022-11-05T10:00:13.260Z,51.05
2022-11-05T10:01:13.320Z,51.61
2022-11-05T10:02:13.289Z,51.40
2022-11-05T10:03:13.457Z,53.22
2022-11-05T10:04:13.293Z,56.26
2022-11-05T10:05:13.316Z,58.37
2022-11-05T10:06:13.165Z,60.25
2022-11-05T10:07:13.165Z,61.74
2022-11-05T10:08:13.189Z,62.78
2022-11-05T10:09:13.148Z,63.29
2022-11-05T10:10:13.158Z,63.93
2022-11-05T10:11:13.135Z,63.93
2022-11-05T10:12:13.124Z,63.53
2022-11-05T10:13:13.389Z,63.73
2022-11-05T10:14:13.106Z,63.80
2022-11-05T10:15:13.057Z,63.39
2022-11-05T10:16:13.083Z,63.29
2022-11-05T10:17:13.057Z,63.09
2022-11-05T10:18:13.042Z,62.88
2022-11-05T10:19:13.041Z,63.19
2022-11-05T10:20:13.029Z,62.96
2022-11-05T10:21:12.998Z,62.88
2022-11-05T10:22:13.040Z,63.29
2022-11-05T10:23:13.263Z,62.78
2022-11-05T10:24:12.989Z,59.59
2022-11-05T10:25:12.962Z,57.98
2022-11-05T10:26:12.974Z,54.94
2022-11-05T10:27:12.940Z,53.80
2022-11-05T10:28:12.941Z,52.44
2022-11-05T10:29:12.913Z,52.56
2022-11-05T10:30:12.913Z,54.38
2022-11-05T10:31:12.902Z,57.03
2022-11-05T10:32:12.886Z,58.47
2022-11-05T10:33:13.105Z,56.95
2022-11-05T10:34:12.846Z,54.31
2022-11-05T10:35:12.833Z,52.34
2022-11-05T10:36:12.868Z,51.28
2022-11-05T10:37:12.814Z,50.24
2022-11-05T10:38:12.804Z,52.39
2022-11-05T10:39:12.878Z,54.23
2022-11-05T10:40:12.799Z,54.13
2022-11-05T10:41:12.777Z,51.25
2022-11-05T10:42:12.815Z,48.79
2022-11-05T10:43:13.122Z,47.83
2022-11-05T10:44:18.551Z,48.43
2022-11-05T10:45:13.764Z,49.41
2022-11-05T10:46:12.718Z,48.69
2022-11-05T10:47:12.722Z,48.08
2022-11-05T10:48:12.712Z,48.56
2022-11-05T10:49:12.709Z,47.41
2022-11-05T10:50:12.783Z,46.76
2022-11-05T10:51:12.657Z,46.01
2022-11-05T10:52:12.652Z,45.49
2022-11-05T10:53:13.105Z,44.81
2022-11-05T10:54:12.666Z,45.01
2022-11-05T10:55:12.664Z,45.49
2022-11-05T10:56:12.612Z,44.76
2022-11-05T10:57:12.611Z,44.87
2022-11-05T10:58:12.650Z,44.81
2022-11-05T10:59:12.577Z,46.56
2022-11-05T11:00:12.582Z,48.46
2022-11-05T11:01:12.619Z,50.55
2022-11-05T11:02:12.621Z,51.68
2022-11-05T11:03:12.877Z,51.43
2022-11-05T11:04:12.564Z,52.19
2022-11-05T11:05:12.504Z,53.65
2022-11-05T11:06:12.529Z,54.94
2022-11-05T11:07:12.509Z,56.95
2022-11-05T11:08:12.467Z,58.52
2022-11-05T11:09:12.501Z,56.76
2022-11-05T11:10:12.470Z,54.03
2022-11-05T11:11:12.458Z,51.71
2022-11-05T11:12:12.459Z,50.23
2022-11-05T11:13:12.784Z,48.87
2022-11-05T11:14:12.412Z,48.47
2022-11-05T11:15:12.416Z,47.42
2022-11-05T11:16:12.439Z,46.41
2022-11-05T11:17:12.370Z,46.44
2022-11-05T11:18:12.452Z,46.22
2022-11-05T11:19:12.388Z,46.44
2022-11-05T11:20:12.331Z,46.94
2022-11-05T11:21:12.386Z,46.66
2022-11-05T11:22:12.355Z,46.86
2022-11-05T11:23:12.634Z,47.41
2022-11-05T11:24:12.312Z,47.99
2022-11-05T11:25:12.273Z,47.16
2022-11-05T11:26:12.274Z,46.84
2022-11-05T11:27:12.320Z,46.11
2022-11-05T11:28:12.283Z,45.71
2022-11-05T11:29:12.246Z,45.51
2022-11-05T11:30:12.238Z,46.54
2022-11-05T11:31:12.259Z,47.08
2022-11-05T11:32:12.264Z,47.06
2022-11-05T11:33:12.530Z,46.68
2022-11-05T11:34:12.200Z,46.68
2022-11-05T11:35:12.218Z,46.15
2022-11-05T11:36:12.169Z,45.10
2022-11-05T11:37:16.731Z,44.59
2022-11-05T11:38:13.147Z,43.66
2022-11-05T11:39:12.161Z,42.91
2022-11-05T11:40:12.117Z,42.69
2022-11-05T11:41:12.120Z,43.28
2022-11-05T11:42:12.098Z,44.28
2022-11-05T11:43:12.426Z,44.71
2022-11-05T11:44:12.100Z,43.68
2022-11-05T11:45:12.070Z,44.10
2022-11-05T11:46:14.994Z,45.37
2022-11-05T11:47:12.047Z,45.63
2022-11-05T11:48:12.046Z,44.81
2022-11-05T11:49:12.022Z,44.59
2022-11-05T11:50:12.041Z,43.98
2022-11-05T11:51:12.047Z,44.59
2022-11-05T11:52:11.996Z,43.98
2022-11-05T11:53:12.297Z,43.56
2022-11-05T11:54:11.976Z,43.78
2022-11-05T11:55:11.953Z,44.65
2022-11-05T11:56:11.991Z,46.85
2022-11-05T11:57:15.146Z,47.33
2022-11-05T11:58:11.956Z,47.20
2022-11-05T11:59:11.905Z,45.65
2022-11-05T12:00:11.902Z,44.91
2022-11-05T12:01:11.917Z,45.31
2022-11-05T12:02:12.084Z,44.91
2022-11-05T12:03:11.989Z,44.56
2022-11-05T12:04:11.856Z,43.24
2022-11-05T12:05:11.854Z,43.86
2022-11-05T12:06:11.870Z,43.86
2022-11-05T12:07:11.809Z,43.64
2022-11-05T12:08:11.823Z,43.12
2022-11-05T12:09:11.826Z,42.52
2022-11-05T12:10:11.821Z,42.69
2022-11-05T12:11:11.811Z,42.18
2022-11-05T12:12:11.776Z,41.96
2022-11-05T12:13:11.936Z,41.57
2022-11-05T12:14:11.780Z,42.07
2022-11-05T12:15:11.743Z,42.69
2022-11-05T12:16:11.742Z,43.02
2022-11-05T12:17:11.729Z,43.46
2022-11-05T12:18:11.715Z,44.08
2022-11-05T12:19:11.688Z,44.51
2022-11-05T12:20:11.691Z,46.28
2022-11-05T12:21:11.684Z,48.41
2022-11-05T12:22:11.675Z,50.09
2022-11-05T12:23:11.972Z,51.35
2022-11-05T12:24:11.625Z,53.27
2022-11-05T12:25:11.627Z,55.27
2022-11-05T12:26:11.619Z,57.05
2022-11-05T12:27:11.638Z,58.42
2022-11-05T12:28:11.600Z,59.16
2022-11-05T12:29:19.594Z,59.47
2022-11-05T12:30:12.572Z,59.77
2022-11-05T12:31:11.561Z,59.41
2022-11-05T12:32:11.602Z,56.03
2022-11-05T12:33:11.963Z,54.00
2022-11-05T12:34:11.533Z,53.42
2022-11-05T12:35:11.540Z,54.79
2022-11-05T12:36:11.513Z,55.55
2022-11-05T12:37:11.523Z,56.29
2022-11-05T12:38:11.487Z,56.82
2022-11-05T12:39:11.472Z,57.05
2022-11-05T12:40:11.488Z,57.15
2022-11-05T12:41:11.443Z,57.38
2022-11-05T12:42:11.442Z,57.71
2022-11-05T12:43:12.022Z,58.33
2022-11-05T12:44:11.418Z,58.12
2022-11-05T12:45:11.436Z,58.45
2022-11-05T12:46:11.384Z,59.03
2022-11-05T12:47:11.424Z,58.73
2022-11-05T12:48:11.392Z,58.73
2022-11-05T12:49:11.403Z,58.83
2022-11-05T12:50:11.405Z,58.73
2022-11-05T12:51:11.325Z,59.03
2022-11-05T12:52:11.327Z,58.42